Time;durP1;ratioP1;P1;durP2;ratioP2;P2;SDS_P1;SDS_P2;PMS_P1;PMS_P2;Temp;Humidity;BMP_temperature;BMP_pressure;BME280_temperature;BME280_humidity;BME280_pressure;Samples;Min_cycle;Max_cycle;Signal;HPM_P1;HPM_P2
2022/12/08 00:00:37;;;;;;;;;;;4.50;88.70;;;;;;5096251;28;19892;-84
2022/12/08 00:03:02;;;;;;;;;;;4.50;88.70;;;;;;5092900;28;19940;-86
2022/12/08 00:10:56;;;;;;;;;;;4.40;88.90;;;;;;5076781;28;19919;-86
2022/12/08 00:13:22;;;;;;;;;;;4.50;88.90;;;;;;5065799;28;20293;-85
2022/12/08 00:15:50;;;;;;;;;;;4.60;88.90;;;;;;5076573;28;19920;-86
2022/12/08 00:18:15;;;;;;;;;;;4.60;88.60;;;;;;5070346;28;19921;-85
2022/12/08 00:20:53;;;;;;;;;;;4.60;88.70;;;;;;5071263;28;19920;-85
2022/12/08 00:23:36;;;;;;;;;;;4.60;88.70;;;;;;5068051;28;19959;-85
2022/12/08 00:26:02;;;;;;;;;;;4.70;88.70;;;;;;5071110;28;19919;-85
2022/12/08 00:28:30;;;;;;;;;;;4.70;88.30;;;;;;5086972;28;19979;-84
2022/12/08 00:30:56;;;;;;;;;;;4.70;88.80;;;;;;5085474;28;19912;-85
2022/12/08 00:33:21;;;;;;;;;;;4.70;88.70;;;;;;5081553;28;20433;-85
2022/12/08 00:35:47;;;;;;;;;;;4.60;88.40;;;;;;5071559;28;19915;-84
2022/12/08 00:38:12;;;;;;;;;;;4.70;88.80;;;;;;5071995;28;20321;-84
2022/12/08 00:40:42;;;;;;;;;;;4.70;88.40;;;;;;5072559;28;19999;-84
2022/12/08 00:43:07;;;;;;;;;;;4.60;88.30;;;;;;5072195;28;19912;-85
2022/12/08 00:45:33;;;;;;;;;;;4.60;88.40;;;;;;5075283;28;19974;-86
2022/12/08 00:47:58;;;;;;;;;;;4.60;88.60;;;;;;5086597;28;19912;-85
2022/12/08 00:50:24;;;;;;;;;;;4.60;88.40;;;;;;5092343;28;19916;-85
2022/12/08 00:52:49;;;;;;;;;;;4.70;88.70;;;;;;5088315;28;19916;-85
2022/12/08 00:55:15;;;;;;;;;;;4.70;88.30;;;;;;5072400;28;21429;-85
2022/12/08 00:57:40;;;;;;;;;;;4.70;88.20;;;;;;5070180;28;19923;-86
2022/12/08 01:00:09;;;;;;;;;;;4.70;88.30;;;;;;5075116;28;20015;-85
2022/12/08 01:02:35;;;;;;;;;;;4.60;88.40;;;;;;5073322;28;19920;-85
2022/12/08 01:05:02;;;;;;;;;;;4.70;88.30;;;;;;5082048;28;20261;-85
2022/12/08 01:07:28;;;;;;;;;;;4.80;88.10;;;;;;5070958;28;19978;-85
2022/12/08 01:09:53;;;;;;;;;;;4.60;88.10;;;;;;5083742;28;20316;-86
2022/12/08 01:12:19;;;;;;;;;;;4.60;88.20;;;;;;5089264;28;19916;-86
2022/12/08 01:14:44;;;;;;;;;;;4.60;88.30;;;;;;5066982;28;19917;-86
2022/12/08 01:17:10;;;;;;;;;;;4.60;88.20;;;;;;5069500;28;20035;-85
2022/12/08 01:19:36;;;;;;;;;;;4.50;88.20;;;;;;5071706;28;19917;-87
2022/12/08 01:22:01;;;;;;;;;;;4.50;88.20;;;;;;5085843;28;19917;-86
2022/12/08 01:24:27;;;;;;;;;;;4.50;88.40;;;;;;5068700;28;19979;-85
2022/12/08 01:26:52;;;;;;;;;;;4.50;88.40;;;;;;5084079;28;19920;-86
2022/12/08 01:29:18;;;;;;;;;;;4.40;88.40;;;;;;5069156;28;20385;-86
2022/12/08 01:31:43;;;;;;;;;;;4.40;88.30;;;;;;5063755;28;19938;-85
2022/12/08 01:34:09;;;;;;;;;;;4.50;88.40;;;;;;5071167;28;19913;-86
2022/12/08 01:36:38;;;;;;;;;;;4.40;88.30;;;;;;5075588;28;19919;-85
2022/12/08 01:39:05;;;;;;;;;;;4.40;88.40;;;;;;5077936;28;19920;-85
2022/12/08 01:41:32;;;;;;;;;;;4.30;88.40;;;;;;5068607;28;19916;-86
2022/12/08 01:44:07;;;;;;;;;;;4.30;88.60;;;;;;5072352;28;19920;-86
2022/12/08 01:46:33;;;;;;;;;;;4.40;88.40;;;;;;5059848;28;19913;-86
2022/12/08 01:49:09;;;;;;;;;;;4.30;88.50;;;;;;5073019;28;20295;-85
2022/12/08 01:51:43;;;;;;;;;;;4.30;88.40;;;;;;5062041;28;20274;-85
2022/12/08 01:54:10;;;;;;;;;;;4.30;88.50;;;;;;5067089;28;19912;-86
2022/12/08 01:56:41;;;;;;;;;;;4.20;88.60;;;;;;5075293;28;19923;-86
2022/12/08 01:59:08;;;;;;;;;;;4.30;88.70;;;;;;5072541;28;19920;-85
2022/12/08 02:01:33;;;;;;;;;;;4.10;88.70;;;;;;5068718;28;19920;-85
2022/12/08 02:04:00;;;;;;;;;;;4.20;88.90;;;;;;5067170;28;20301;-85
2022/12/08 02:06:29;;;;;;;;;;;4.20;88.80;;;;;;5066705;28;20405;-86
2022/12/08 02:08:55;;;;;;;;;;;4.20;89.00;;;;;;5068792;28;19912;-86
2022/12/08 02:11:21;;;;;;;;;;;4.30;88.80;;;;;;5069407;28;19916;-86
2022/12/08 02:13:46;;;;;;;;;;;4.30;88.80;;;;;;5070336;28;19972;-87
2022/12/08 02:16:36;;;;;;;;;;;4.30;88.90;;;;;;5065421;28;19919;-86
2022/12/08 02:19:20;;;;;;;;;;;4.30;88.70;;;;;;5068834;28;20420;-86
2022/12/08 02:21:51;;;;;;;;;;;4.50;88.50;;;;;;5075117;28;19916;-85
2022/12/08 02:24:22;;;;;;;;;;;4.30;88.30;;;;;;5075252;28;19927;-85
2022/12/08 02:27:06;;;;;;;;;;;4.40;88.50;;;;;;5085949;28;19916;-85
2022/12/08 02:29:37;;;;;;;;;;;4.30;88.40;;;;;;5067550;28;20309;-86
2022/12/08 02:32:18;;;;;;;;;;;4.20;88.60;;;;;;5083706;28;19935;-85
2022/12/08 02:34:48;;;;;;;;;;;4.30;88.80;;;;;;5074899;28;19919;-84
2022/12/08 02:37:22;;;;;;;;;;;4.30;88.80;;;;;;5089449;28;19912;-85
2022/12/08 02:39:56;;;;;;;;;;;4.30;88.80;;;;;;5076881;28;20010;-84
2022/12/08 02:42:26;;;;;;;;;;;4.30;88.80;;;;;;5074343;28;19920;-85
2022/12/08 02:45:11;;;;;;;;;;;4.30;88.80;;;;;;5071665;28;19919;-85
2022/12/08 02:47:37;;;;;;;;;;;4.30;88.90;;;;;;5080139;28;19935;-85
2022/12/08 02:50:02;;;;;;;;;;;4.30;88.90;;;;;;5084582;28;19912;-85
2022/12/08 02:52:28;;;;;;;;;;;4.30;88.70;;;;;;5098645;28;19905;-84
2022/12/08 02:55:01;;;;;;;;;;;4.40;88.90;;;;;;5085660;28;20274;-85
2022/12/08 02:57:53;;;;;;;;;;;4.40;89.00;;;;;;5070812;28;19955;-85
2022/12/08 03:00:20;;;;;;;;;;;4.50;88.50;;;;;;5040906;28;19920;-85
2022/12/08 03:02:55;;;;;;;;;;;4.50;88.60;;;;;;5072497;28;19919;-86
2022/12/08 03:05:39;;;;;;;;;;;4.60;88.20;;;;;;5075600;28;19912;-85
2022/12/08 03:08:27;;;;;;;;;;;4.60;88.00;;;;;;5068842;28;19912;-84
2022/12/08 03:11:00;;;;;;;;;;;4.60;88.20;;;;;;5085048;28;19912;-83
2022/12/08 03:13:32;;;;;;;;;;;4.50;87.90;;;;;;5094590;28;19927;-83
2022/12/08 03:15:59;;;;;;;;;;;4.50;88.00;;;;;;5082030;28;19928;-85
2022/12/08 03:18:27;;;;;;;;;;;4.60;88.30;;;;;;5068839;28;20015;-85
2022/12/08 03:20:53;;;;;;;;;;;4.50;88.30;;;;;;5072240;28;19916;-85
2022/12/08 03:23:19;;;;;;;;;;;4.50;88.50;;;;;;5061539;28;19959;-86
2022/12/08 03:25:49;;;;;;;;;;;4.50;88.40;;;;;;5067523;28;19908;-84
2022/12/08 03:28:15;;;;;;;;;;;4.60;88.30;;;;;;5070967;28;20380;-85
2022/12/08 03:30:42;;;;;;;;;;;4.60;88.20;;;;;;5082733;28;19908;-86
2022/12/08 03:33:16;;;;;;;;;;;4.50;88.10;;;;;;5067983;28;19924;-86
2022/12/08 03:35:43;;;;;;;;;;;4.50;88.40;;;;;;5072637;28;19919;-85
2022/12/08 03:38:13;;;;;;;;;;;4.50;88.40;;;;;;5068930;28;19939;-85
2022/12/08 03:40:41;;;;;;;;;;;4.50;88.60;;;;;;5065699;28;20445;-85
2022/12/08 03:43:07;;;;;;;;;;;4.50;88.70;;;;;;5075689;28;20399;-86
2022/12/08 03:45:40;;;;;;;;;;;4.50;88.80;;;;;;5073140;28;19995;-86
2022/12/08 03:48:06;;;;;;;;;;;4.50;88.80;;;;;;5069416;28;20455;-84
2022/12/08 03:50:31;;;;;;;;;;;4.50;88.60;;;;;;5082006;28;19936;-84
2022/12/08 03:52:57;;;;;;;;;;;4.60;88.60;;;;;;5090722;28;19921;-85
2022/12/08 03:55:22;;;;;;;;;;;4.60;88.60;;;;;;5071617;28;19909;-84
2022/12/08 03:57:48;;;;;;;;;;;4.60;88.50;;;;;;5068262;28;19959;-84
2022/12/08 04:00:14;;;;;;;;;;;4.60;88.60;;;;;;5069417;28;20015;-85
2022/12/08 04:02:39;;;;;;;;;;;4.60;88.70;;;;;;5068669;28;20395;-84
2022/12/08 04:05:05;;;;;;;;;;;4.50;88.70;;;;;;5070518;28;19917;-84
2022/12/08 04:07:31;;;;;;;;;;;4.60;88.80;;;;;;5070451;28;20385;-84
2022/12/08 04:09:56;;;;;;;;;;;4.50;88.80;;;;;;5070362;28;19912;-84
2022/12/08 04:12:30;;;;;;;;;;;4.50;88.90;;;;;;5073226;28;20350;-85
2022/12/08 04:14:55;;;;;;;;;;;4.50;88.80;;;;;;5089005;22;19928;-83
2022/12/08 04:17:21;;;;;;;;;;;4.50;89.00;;;;;;5069386;28;19913;-83
2022/12/08 04:19:46;;;;;;;;;;;4.50;89.10;;;;;;5069647;28;20045;-82
2022/12/08 04:22:11;;;;;;;;;;;4.50;89.20;;;;;;5064054;28;19916;-82
2022/12/08 04:24:37;;;;;;;;;;;4.60;89.20;;;;;;5065319;28;19940;-82
2022/12/08 04:27:02;;;;;;;;;;;4.50;88.80;;;;;;5073751;28;19965;-82
2022/12/08 04:29:28;;;;;;;;;;;4.50;89.10;;;;;;5079449;28;19913;-82
2022/12/08 04:31:53;;;;;;;;;;;4.50;88.90;;;;;;5083424;28;20440;-81
2022/12/08 04:34:18;;;;;;;;;;;4.50;88.80;;;;;;5078334;28;20006;-82
2022/12/08 04:36:44;;;;;;;;;;;4.50;88.70;;;;;;5075118;28;19909;-83
2022/12/08 04:39:09;;;;;;;;;;;4.50;88.80;;;;;;5066710;28;19970;-82
2022/12/08 04:41:35;;;;;;;;;;;4.50;88.90;;;;;;5069630;28;20304;-82
2022/12/08 04:44:00;;;;;;;;;;;4.50;89.10;;;;;;5070546;28;20346;-82
2022/12/08 04:46:26;;;;;;;;;;;4.50;89.20;;;;;;5068127;28;19947;-82
2022/12/08 04:48:51;;;;;;;;;;;4.50;89.20;;;;;;5077574;28;19920;-82
2022/12/08 04:51:17;;;;;;;;;;;4.50;89.10;;;;;;5070722;28;19981;-82
2022/12/08 04:53:43;;;;;;;;;;;4.50;89.20;;;;;;5071749;28;19920;-82
2022/12/08 04:56:12;;;;;;;;;;;4.50;89.40;;;;;;5070300;28;19924;-82
2022/12/08 04:58:38;;;;;;;;;;;4.50;89.20;;;;;;5071132;28;19920;-82
2022/12/08 05:01:04;;;;;;;;;;;4.50;89.10;;;;;;5069153;28;20388;-82
2022/12/08 05:03:29;;;;;;;;;;;4.60;89.30;;;;;;5070742;28;19912;-82
2022/12/08 05:05:54;;;;;;;;;;;4.50;89.00;;;;;;5086850;28;19919;-82
2022/12/08 05:08:20;;;;;;;;;;;4.50;89.10;;;;;;5070631;28;19913;-82
2022/12/08 05:10:45;;;;;;;;;;;4.50;89.10;;;;;;5069907;28;19920;-82
2022/12/08 05:13:11;;;;;;;;;;;4.50;89.10;;;;;;5066661;28;20002;-82
2022/12/08 05:15:36;;;;;;;;;;;4.40;89.20;;;;;;5072235;28;19956;-82
2022/12/08 05:18:04;;;;;;;;;;;4.40;89.40;;;;;;5065572;28;19912;-82
2022/12/08 05:20:29;;;;;;;;;;;4.40;89.50;;;;;;5071691;28;20003;-82
2022/12/08 05:22:54;;;;;;;;;;;4.50;89.50;;;;;;5072649;28;19995;-82
2022/12/08 05:25:20;;;;;;;;;;;4.30;89.20;;;;;;5068725;28;19942;-82
2022/12/08 05:27:45;;;;;;;;;;;4.40;89.30;;;;;;5070555;28;20267;-82
2022/12/08 05:30:11;;;;;;;;;;;4.30;89.30;;;;;;5068984;28;20378;-81
2022/12/08 05:32:36;;;;;;;;;;;4.30;89.40;;;;;;5068451;28;20502;-81
2022/12/08 05:35:02;;;;;;;;;;;4.30;89.70;;;;;;5071170;28;19917;-81
2022/12/08 05:37:27;;;;;;;;;;;4.30;89.80;;;;;;5075633;28;19964;-82
2022/12/08 05:39:52;;;;;;;;;;;4.30;90.00;;;;;;5069891;28;20370;-83
2022/12/08 05:42:18;;;;;;;;;;;4.30;90.10;;;;;;5063782;28;20133;-82
2022/12/08 05:44:43;;;;;;;;;;;4.30;90.00;;;;;;5072564;28;19913;-82
2022/12/08 05:47:09;;;;;;;;;;;4.30;90.20;;;;;;5072678;28;20377;-83
2022/12/08 05:49:34;;;;;;;;;;;4.30;90.20;;;;;;5073464;28;20289;-83
2022/12/08 05:52:00;;;;;;;;;;;4.30;90.10;;;;;;5067715;28;20301;-82
2022/12/08 05:54:25;;;;;;;;;;;4.30;90.20;;;;;;5073407;28;20374;-81
2022/12/08 05:56:50;;;;;;;;;;;4.30;90.00;;;;;;5078684;28;19947;-82
2022/12/08 05:59:16;;;;;;;;;;;4.30;90.10;;;;;;5071552;28;20369;-83
2022/12/08 06:01:41;;;;;;;;;;;4.30;90.10;;;;;;5071035;28;20393;-82
2022/12/08 06:04:07;;;;;;;;;;;4.30;90.20;;;;;;5066387;28;20390;-83
2022/12/08 06:06:33;;;;;;;;;;;4.30;90.30;;;;;;5071530;28;20362;-83
2022/12/08 06:09:00;;;;;;;;;;;4.40;90.50;;;;;;5065650;28;19927;-81
2022/12/08 06:11:27;;;;;;;;;;;4.50;90.10;;;;;;5073775;28;19916;-83
2022/12/08 06:13:53;;;;;;;;;;;4.50;90.30;;;;;;5077262;28;19912;-82
2022/12/08 06:16:18;;;;;;;;;;;4.40;90.20;;;;;;5074420;28;19920;-83
2022/12/08 06:18:44;;;;;;;;;;;4.50;90.30;;;;;;5070401;28;20042;-82
2022/12/08 06:21:10;;;;;;;;;;;4.50;90.10;;;;;;5072379;28;19916;-82
2022/12/08 06:23:36;;;;;;;;;;;4.40;90.30;;;;;;5073030;28;20003;-84
2022/12/08 06:26:06;;;;;;;;;;;4.40;89.80;;;;;;5067646;28;19991;-84
2022/12/08 06:28:32;;;;;;;;;;;4.50;90.00;;;;;;5061113;28;20023;-82
2022/12/08 06:30:58;;;;;;;;;;;4.50;90.10;;;;;;5068366;28;20378;-83
2022/12/08 06:33:24;;;;;;;;;;;4.50;90.10;;;;;;5068423;28;19966;-84
2022/12/08 06:35:49;;;;;;;;;;;4.50;90.10;;;;;;5073254;28;19919;-83
2022/12/08 06:38:15;;;;;;;;;;;4.50;90.10;;;;;;5090548;28;20003;-85
2022/12/08 06:40:40;;;;;;;;;;;4.50;90.20;;;;;;5064784;28;19962;-84
2022/12/08 06:43:06;;;;;;;;;;;4.50;90.20;;;;;;5060710;28;20418;-82
2022/12/08 06:45:31;;;;;;;;;;;4.50;89.90;;;;;;5068344;28;19912;-81
2022/12/08 06:47:57;;;;;;;;;;;4.50;89.90;;;;;;5065109;28;19970;-85
2022/12/08 06:50:22;;;;;;;;;;;4.50;89.70;;;;;;5067074;28;19917;-83
2022/12/08 06:52:47;;;;;;;;;;;4.50;89.70;;;;;;5068178;28;20357;-83
2022/12/08 06:55:13;;;;;;;;;;;4.50;89.80;;;;;;5069412;28;20416;-84
2022/12/08 06:57:38;;;;;;;;;;;4.40;89.20;;;;;;5067596;28;19959;-83
2022/12/08 07:00:04;;;;;;;;;;;4.30;89.00;;;;;;5068596;28;19927;-82
2022/12/08 07:02:30;;;;;;;;;;;4.30;88.80;;;;;;5064494;28;20305;-82
2022/12/08 07:04:55;;;;;;;;;;;4.30;88.90;;;;;;5067601;28;20274;-82
2022/12/08 07:07:21;;;;;;;;;;;4.30;89.00;;;;;;5068368;28;19971;-82
2022/12/08 07:09:46;;;;;;;;;;;4.30;89.20;;;;;;5073287;28;19916;-82
2022/12/08 07:12:11;;;;;;;;;;;4.30;89.20;;;;;;5071691;28;19912;-82
2022/12/08 07:14:37;;;;;;;;;;;4.30;89.10;;;;;;5072007;28;19996;-83
2022/12/08 07:17:05;;;;;;;;;;;4.40;89.30;;;;;;5073670;28;19999;-82
2022/12/08 07:19:36;;;;;;;;;;;4.40;89.20;;;;;;5086580;28;20354;-83
2022/12/08 07:22:04;;;;;;;;;;;4.40;89.30;;;;;;5074162;28;19912;-82
2022/12/08 07:24:45;;;;;;;;;;;4.40;89.20;;;;;;5073079;28;19918;-84
2022/12/08 07:27:10;;;;;;;;;;;4.40;89.40;;;;;;5072444;28;19920;-81
2022/12/08 07:29:36;;;;;;;;;;;4.40;89.60;;;;;;5074688;28;19912;-83
2022/12/08 07:32:01;;;;;;;;;;;4.40;89.90;;;;;;5086684;28;19925;-81
2022/12/08 07:34:27;;;;;;;;;;;4.40;89.80;;;;;;5074880;28;19920;-82
2022/12/08 07:36:52;;;;;;;;;;;4.50;89.30;;;;;;5077087;28;19916;-82
2022/12/08 07:39:18;;;;;;;;;;;4.40;89.30;;;;;;5094185;28;19919;-81
2022/12/08 07:41:43;;;;;;;;;;;4.50;89.30;;;;;;5074235;28;19912;-82
2022/12/08 07:44:09;;;;;;;;;;;4.30;89.20;;;;;;5072893;28;19921;-82
2022/12/08 07:46:35;;;;;;;;;;;4.30;89.20;;;;;;5074379;28;19916;-82
2022/12/08 07:49:00;;;;;;;;;;;4.30;89.20;;;;;;5073126;28;19908;-81
2022/12/08 07:51:25;;;;;;;;;;;4.40;89.60;;;;;;5079884;28;19976;-82
2022/12/08 07:53:51;;;;;;;;;;;4.40;89.30;;;;;;5083315;28;19919;-81
2022/12/08 07:56:17;;;;;;;;;;;4.30;89.50;;;;;;5087614;28;19908;-82
2022/12/08 07:58:44;;;;;;;;;;;4.30;89.80;;;;;;5076566;28;19917;-82
2022/12/08 08:01:20;;;;;;;;;;;4.30;89.40;;;;;;5071305;28;19939;-82
2022/12/08 08:03:46;;;;;;;;;;;4.40;89.30;;;;;;5073666;28;19962;-82
2022/12/08 08:06:11;;;;;;;;;;;4.40;89.60;;;;;;5072687;28;19920;-82
2022/12/08 08:08:37;;;;;;;;;;;4.40;89.50;;;;;;5072455;28;19916;-83
2022/12/08 08:11:05;;;;;;;;;;;4.40;89.70;;;;;;5073875;28;19965;-81
2022/12/08 08:13:30;;;;;;;;;;;4.30;89.70;;;;;;5073798;28;20010;-82
2022/12/08 08:16:01;;;;;;;;;;;4.40;90.00;;;;;;5070703;28;20399;-82
2022/12/08 08:18:26;;;;;;;;;;;4.30;89.90;;;;;;5072788;28;20114;-83
2022/12/08 08:20:52;;;;;;;;;;;4.40;90.20;;;;;;5071110;28;20020;-81
2022/12/08 08:23:17;;;;;;;;;;;4.40;89.90;;;;;;5073643;28;19964;-82
2022/12/08 08:25:43;;;;;;;;;;;4.40;89.90;;;;;;5070743;28;20079;-82
2022/12/08 08:28:08;;;;;;;;;;;4.40;89.90;;;;;;5073623;28;19924;-81
2022/12/08 08:30:34;;;;;;;;;;;4.50;89.90;;;;;;5073072;28;19912;-83
2022/12/08 08:32:59;;;;;;;;;;;4.40;89.60;;;;;;5071595;28;19913;-82
2022/12/08 08:35:25;;;;;;;;;;;4.30;89.60;;;;;;5073924;28;19943;-82
2022/12/08 08:37:50;;;;;;;;;;;4.40;89.80;;;;;;5071723;28;20011;-81
2022/12/08 08:40:16;;;;;;;;;;;4.40;89.80;;;;;;5072698;28;20261;-83
2022/12/08 08:42:42;;;;;;;;;;;4.40;89.40;;;;;;5072084;28;19912;-82
2022/12/08 08:45:07;;;;;;;;;;;4.40;89.40;;;;;;5072114;28;20465;-83
2022/12/08 08:47:33;;;;;;;;;;;4.40;89.50;;;;;;5071489;28;20004;-82
2022/12/08 08:49:58;;;;;;;;;;;4.40;89.30;;;;;;5070863;28;20019;-80
2022/12/08 08:52:24;;;;;;;;;;;4.30;89.00;;;;;;5068272;28;19923;-82
2022/12/08 08:54:49;;;;;;;;;;;4.30;89.40;;;;;;5069953;28;19991;-82
2022/12/08 08:57:15;;;;;;;;;;;4.30;89.50;;;;;;5072614;28;19961;-82
2022/12/08 08:59:40;;;;;;;;;;;4.20;89.50;;;;;;5070778;28;19930;-83
2022/12/08 09:02:05;;;;;;;;;;;4.30;89.60;;;;;;5070986;28;19999;-81
2022/12/08 09:04:31;;;;;;;;;;;4.30;89.60;;;;;;5071981;28;19919;-80
2022/12/08 09:06:56;;;;;;;;;;;4.30;89.60;;;;;;5071534;28;19913;-82
2022/12/08 09:09:22;;;;;;;;;;;4.30;89.50;;;;;;5075474;28;19966;-82
2022/12/08 09:11:47;;;;;;;;;;;4.30;89.50;;;;;;5070043;28;20301;-81
2022/12/08 09:14:14;;;;;;;;;;;4.30;89.60;;;;;;5070932;28;20292;-82
2022/12/08 09:16:39;;;;;;;;;;;4.30;89.90;;;;;;5070508;28;20360;-84
2022/12/08 09:19:05;;;;;;;;;;;4.30;89.80;;;;;;5070936;28;19959;-82
2022/12/08 09:21:30;;;;;;;;;;;4.30;89.30;;;;;;5069028;28;20431;-83
2022/12/08 09:23:57;;;;;;;;;;;4.30;89.50;;;;;;5068741;28;20000;-82
2022/12/08 09:26:24;;;;;;;;;;;4.10;89.20;;;;;;5070824;28;19912;-82
2022/12/08 09:28:50;;;;;;;;;;;4.20;89.30;;;;;;5073876;28;19955;-81
2022/12/08 09:31:16;;;;;;;;;;;4.20;89.50;;;;;;5077854;28;19916;-79
2022/12/08 09:33:41;;;;;;;;;;;4.20;89.70;;;;;;5082640;28;19952;-81
2022/12/08 09:36:07;;;;;;;;;;;4.20;89.30;;;;;;5072625;28;19917;-81
2022/12/08 09:38:33;;;;;;;;;;;4.10;89.40;;;;;;5071663;28;19947;-81
2022/12/08 09:40:59;;;;;;;;;;;4.20;89.60;;;;;;5070462;28;19974;-81
2022/12/08 09:43:43;;;;;;;;;;;4.20;89.50;;;;;;5073252;28;19943;-81
2022/12/08 09:46:09;;;;;;;;;;;4.10;89.80;;;;;;5078237;28;19916;-81
2022/12/08 09:48:38;;;;;;;;;;;4.30;90.20;;;;;;5081428;28;20011;-81
2022/12/08 09:51:03;;;;;;;;;;;4.30;89.70;;;;;;5074914;28;19912;-82
2022/12/08 09:53:41;;;;;;;;;;;4.30;89.60;;;;;;5071252;28;19924;-81
2022/12/08 09:56:23;;;;;;;;;;;4.30;89.70;;;;;;5080158;28;19959;-82
2022/12/08 09:58:50;;;;;;;;;;;4.30;89.80;;;;;;5072199;28;19919;-82
2022/12/08 10:01:16;;;;;;;;;;;4.30;89.90;;;;;;5068970;28;20350;-81
2022/12/08 10:03:42;;;;;;;;;;;4.30;89.90;;;;;;5070786;28;19913;-82
2022/12/08 10:06:23;;;;;;;;;;;4.20;89.50;;;;;;5073832;28;19912;-82
2022/12/08 10:08:55;;;;;;;;;;;4.30;89.70;;;;;;5071982;28;19927;-82
2022/12/08 10:11:26;;;;;;;;;;;4.30;89.30;;;;;;5071463;28;20354;-83
2022/12/08 10:13:57;;;;;;;;;;;4.20;89.30;;;;;;5077640;28;20377;-82
2022/12/08 10:18:53;;;;;;;;;;;4.20;89.40;;;;;;5119333;22;19928;-83
2022/12/08 10:21:21;;;;;;;;;;;4.10;89.30;;;;;;5089204;28;19916;-83
2022/12/08 10:23:48;;;;;;;;;;;4.10;89.30;;;;;;5090078;28;19923;-82
2022/12/08 10:26:15;;;;;;;;;;;4.20;89.50;;;;;;5091310;28;19908;-84
2022/12/08 10:28:41;;;;;;;;;;;4.10;89.40;;;;;;5090969;28;19915;-83
2022/12/08 10:31:13;;;;;;;;;;;4.10;89.80;;;;;;5090136;28;19942;-83
2022/12/08 10:33:38;;;;;;;;;;;4.20;89.50;;;;;;5088151;28;19912;-83
2022/12/08 10:36:04;;;;;;;;;;;4.20;89.40;;;;;;5092971;28;19908;-84
2022/12/08 10:38:34;;;;;;;;;;;4.20;89.70;;;;;;5090618;28;19999;-84
2022/12/08 10:41:03;;;;;;;;;;;4.20;89.80;;;;;;5091276;28;20049;-87
2022/12/08 10:43:29;;;;;;;;;;;4.10;89.90;;;;;;5097592;28;20010;-86
2022/12/08 10:46:06;;;;;;;;;;;4.30;90.00;;;;;;5119996;28;20407;-86
2022/12/08 10:48:32;;;;;;;;;;;4.30;89.80;;;;;;5092018;28;20289;-87
2022/12/08 10:50:58;;;;;;;;;;;4.30;89.90;;;;;;5110665;28;19908;-86
2022/12/08 10:53:27;;;;;;;;;;;4.30;89.80;;;;;;5096266;28;19908;-86
2022/12/08 10:55:53;;;;;;;;;;;4.30;89.80;;;;;;5111468;28;19919;-85
2022/12/08 10:58:26;;;;;;;;;;;4.40;89.20;;;;;;5097857;28;19915;-85
2022/12/08 11:01:04;;;;;;;;;;;4.30;89.30;;;;;;5098682;28;19927;-85
2022/12/08 11:03:35;;;;;;;;;;;4.30;89.70;;;;;;5086406;28;20429;-86
2022/12/08 11:06:08;;;;;;;;;;;4.40;90.00;;;;;;5095425;28;19916;-85
2022/12/08 11:08:42;;;;;;;;;;;4.40;89.90;;;;;;5091339;28;19912;-85
2022/12/08 11:11:07;;;;;;;;;;;4.40;89.90;;;;;;5091792;28;19916;-84
2022/12/08 11:13:39;;;;;;;;;;;4.40;89.60;;;;;;5074773;28;20287;-85
2022/12/08 11:16:05;;;;;;;;;;;4.40;89.30;;;;;;5089596;28;20404;-84
2022/12/08 11:18:40;;;;;;;;;;;4.40;89.30;;;;;;5106578;28;19908;-85
2022/12/08 11:21:09;;;;;;;;;;;4.30;89.50;;;;;;5094298;28;19917;-85
2022/12/08 11:23:36;;;;;;;;;;;4.30;89.40;;;;;;5107280;28;19911;-83
2022/12/08 11:26:07;;;;;;;;;;;4.30;89.40;;;;;;5092032;28;19999;-84
2022/12/08 11:28:32;;;;;;;;;;;4.30;89.30;;;;;;5073508;28;20289;-83
2022/12/08 11:31:01;;;;;;;;;;;4.30;89.40;;;;;;5107221;28;19913;-83
2022/12/08 11:33:27;;;;;;;;;;;4.30;89.10;;;;;;5088780;28;19912;-83
2022/12/08 11:35:55;;;;;;;;;;;4.30;89.20;;;;;;5087235;28;20003;-82
2022/12/08 11:38:23;;;;;;;;;;;4.30;89.10;;;;;;5098911;28;19944;-83
2022/12/08 11:41:08;;;;;;;;;;;4.20;89.20;;;;;;5094705;28;19921;-84
2022/12/08 11:43:50;;;;;;;;;;;4.20;89.00;;;;;;5087502;28;20278;-85
2022/12/08 11:46:23;;;;;;;;;;;4.20;89.00;;;;;;5082145;28;19912;-85
2022/12/08 11:48:57;;;;;;;;;;;4.20;89.20;;;;;;5082805;28;19913;-87
2022/12/08 11:51:28;;;;;;;;;;;4.10;88.90;;;;;;5095103;28;20377;-86
2022/12/08 11:53:54;;;;;;;;;;;4.10;89.20;;;;;;5093402;28;19912;-87
2022/12/08 11:56:30;;;;;;;;;;;4.10;89.00;;;;;;5088586;28;19924;-85
2022/12/08 11:58:57;;;;;;;;;;;4.10;89.10;;;;;;5094510;28;19938;-86
2022/12/08 12:01:24;;;;;;;;;;;4.10;89.60;;;;;;5100355;28;19919;-86
2022/12/08 12:03:53;;;;;;;;;;;4.20;88.90;;;;;;5082292;28;19916;-84
2022/12/08 12:06:38;;;;;;;;;;;4.20;89.10;;;;;;5095926;28;19951;-85
2022/12/08 12:09:22;;;;;;;;;;;4.10;88.70;;;;;;5077085;28;19908;-84
2022/12/08 12:12:13;;;;;;;;;;;4.20;88.50;;;;;;5094874;28;19916;-85
2022/12/08 12:14:51;;;;;;;;;;;4.10;88.40;;;;;;5081208;28;19913;-85
2022/12/08 12:17:19;;;;;;;;;;;4.10;88.60;;;;;;5085072;28;19923;-85
2022/12/08 12:19:46;;;;;;;;;;;4.00;88.80;;;;;;5089616;28;19920;-85
2022/12/08 12:22:14;;;;;;;;;;;4.00;88.60;;;;;;5092840;28;19913;-86
2022/12/08 12:24:41;;;;;;;;;;;3.90;88.50;;;;;;5087449;28;19909;-86
2022/12/08 12:27:20;;;;;;;;;;;3.90;88.90;;;;;;5088541;28;19919;-85
2022/12/08 12:30:00;;;;;;;;;;;4.00;88.90;;;;;;5088530;28;19920;-86
2022/12/08 12:32:38;;;;;;;;;;;4.00;88.70;;;;;;5101797;28;19938;-86
2022/12/08 12:35:04;;;;;;;;;;;4.00;88.10;;;;;;5114682;28;19941;-86
2022/12/08 12:37:37;;;;;;;;;;;3.90;87.50;;;;;;5117399;28;19915;-86
2022/12/08 12:40:11;;;;;;;;;;;3.90;88.20;;;;;;5087833;28;19929;-85
2022/12/08 12:42:38;;;;;;;;;;;3.90;88.30;;;;;;5095471;28;19998;-84
2022/12/08 12:45:10;;;;;;;;;;;3.80;88.20;;;;;;5084372;28;19999;-85
2022/12/08 12:48:02;;;;;;;;;;;3.80;88.20;;;;;;5091998;28;19939;-85
2022/12/08 12:50:33;;;;;;;;;;;3.80;88.20;;;;;;5061485;28;20366;-85
2022/12/08 12:53:03;;;;;;;;;;;3.70;88.20;;;;;;5091230;28;19919;-87
2022/12/08 12:55:48;;;;;;;;;;;3.70;87.90;;;;;;5092265;28;20290;-85
2022/12/08 12:58:22;;;;;;;;;;;3.70;87.70;;;;;;5076899;28;19919;-83
2022/12/08 13:00:47;;;;;;;;;;;3.60;88.00;;;;;;5085866;28;20416;-90
2022/12/08 13:03:15;;;;;;;;;;;3.60;88.60;;;;;;5086956;28;21167;-86
2022/12/08 13:05:47;;;;;;;;;;;3.60;88.90;;;;;;5084152;28;20226;-85
2022/12/08 13:08:23;;;;;;;;;;;3.60;88.80;;;;;;5095245;28;19912;-85
2022/12/08 13:11:05;;;;;;;;;;;3.60;88.30;;;;;;5098320;28;19954;-86
2022/12/08 13:13:31;;;;;;;;;;;3.50;88.20;;;;;;5081917;28;19974;-87
2022/12/08 13:16:00;;;;;;;;;;;3.50;88.30;;;;;;5090021;28;19912;-87
2022/12/08 13:18:28;;;;;;;;;;;3.50;88.60;;;;;;5077957;28;19938;-86
2022/12/08 13:20:56;;;;;;;;;;;3.50;88.50;;;;;;5087861;28;19912;-86
2022/12/08 13:23:27;;;;;;;;;;;3.50;88.50;;;;;;5084974;28;19980;-88
2022/12/08 13:26:08;;;;;;;;;;;3.40;88.70;;;;;;5086294;28;20068;-89
2022/12/08 13:28:53;;;;;;;;;;;3.50;89.10;;;;;;5076730;28;19913;-89
2022/12/08 13:31:38;;;;;;;;;;;3.40;89.10;;;;;;5102691;28;19920;-90
2022/12/08 13:34:05;;;;;;;;;;;3.40;89.00;;;;;;5083431;28;19954;-90
2022/12/08 13:36:32;;;;;;;;;;;3.50;89.00;;;;;;5075203;28;20045;-88
2022/12/08 13:38:58;;;;;;;;;;;3.60;89.30;;;;;;5094469;28;19924;-90
2022/12/08 13:41:57;;;;;;;;;;;3.60;89.20;;;;;;5072125;28;19912;-86
2022/12/08 13:44:26;;;;;;;;;;;3.60;89.60;;;;;;5052766;28;19912;-87
2022/12/08 13:46:53;;;;;;;;;;;3.70;89.40;;;;;;5089183;28;20468;-87
2022/12/08 13:49:23;;;;;;;;;;;3.70;89.40;;;;;;5099591;28;19918;-88
2022/12/08 13:51:51;;;;;;;;;;;3.70;89.70;;;;;;5078890;28;19923;-87
2022/12/08 13:54:19;;;;;;;;;;;3.70;89.90;;;;;;5084315;28;19919;-87
2022/12/08 13:56:45;;;;;;;;;;;3.80;89.70;;;;;;5087164;28;19966;-86
2022/12/08 13:59:20;;;;;;;;;;;3.80;89.70;;;;;;5099974;28;19920;-86
2022/12/08 14:01:46;;;;;;;;;;;3.80;89.90;;;;;;5078493;28;19916;-86
2022/12/08 14:04:16;;;;;;;;;;;3.90;90.00;;;;;;5088788;28;19951;-86
2022/12/08 14:06:44;;;;;;;;;;;3.90;90.00;;;;;;5086714;28;19912;-87
2022/12/08 14:09:11;;;;;;;;;;;3.90;90.10;;;;;;5109706;28;19950;-86
2022/12/08 14:11:38;;;;;;;;;;;4.00;89.70;;;;;;5079405;28;19912;-85
2022/12/08 14:14:15;;;;;;;;;;;4.00;89.80;;;;;;5082311;28;19912;-85
2022/12/08 14:16:47;;;;;;;;;;;4.00;89.70;;;;;;5082912;28;19913;-86
2022/12/08 14:19:17;;;;;;;;;;;4.00;89.70;;;;;;5102201;28;19916;-85
2022/12/08 14:21:46;;;;;;;;;;;4.00;90.00;;;;;;5081607;28;19912;-85
2022/12/08 14:24:12;;;;;;;;;;;4.00;89.70;;;;;;5084944;28;19912;-85
2022/12/08 14:26:37;;;;;;;;;;;4.00;89.80;;;;;;5085076;28;19934;-85
2022/12/08 14:29:05;;;;;;;;;;;4.10;89.80;;;;;;5087483;28;19952;-85
2022/12/08 14:31:30;;;;;;;;;;;4.10;89.90;;;;;;5082037;28;20392;-85
2022/12/08 14:33:56;;;;;;;;;;;4.10;89.70;;;;;;5087293;28;19913;-85
2022/12/08 14:36:21;;;;;;;;;;;4.10;89.80;;;;;;5096592;28;19912;-86
2022/12/08 14:38:55;;;;;;;;;;;4.00;89.60;;;;;;5092449;28;19923;-85
2022/12/08 14:41:25;;;;;;;;;;;4.00;89.60;;;;;;5098044;28;19916;-86
2022/12/08 14:43:58;;;;;;;;;;;4.00;89.80;;;;;;5096791;28;20045;-85
2022/12/08 14:46:24;;;;;;;;;;;3.90;89.80;;;;;;5101647;28;19912;-86